sensor_id;sensor_type;location;lat;lon;timestamp;P1;durP1;ratioP1;P2;durP2;ratioP2
10461;SDS011;5278;42.656;23.374;2022-12-11T00:01:19;17.03;;;10.63;;
10461;SDS011;5278;42.656;23.374;2022-12-11T00:03:47;13.60;;;10.07;;
10461;SDS011;5278;42.656;23.374;2022-12-11T00:06:16;15.40;;;11.30;;
10461;SDS011;5278;42.656;23.374;2022-12-11T00:08:45;17.07;;;10.33;;
10461;SDS011;5278;42.656;23.374;2022-12-11T00:11:12;14.07;;;10.17;;
10461;SDS011;5278;42.656;23.374;2022-12-11T00:13:40;12.60;;;9.03;;
10461;SDS011;5278;42.656;23.374;2022-12-11T00:16:07;7.60;;;6.17;;
10461;SDS011;5278;42.656;23.374;2022-12-11T00:18:35;10.10;;;7.23;;
10461;SDS011;5278;42.656;23.374;2022-12-11T00:21:04;14.53;;;8.70;;
10461;SDS011;5278;42.656;23.374;2022-12-11T00:23:35;12.93;;;8.23;;
10461;SDS011;5278;42.656;23.374;2022-12-11T00:26:04;13.30;;;8.73;;
10461;SDS011;5278;42.656;23.374;2022-12-11T00:28:34;12.47;;;9.27;;
10461;SDS011;5278;42.656;23.374;2022-12-11T00:31:02;11.03;;;8.50;;
10461;SDS011;5278;42.656;23.374;2022-12-11T00:33:30;12.23;;;8.73;;
10461;SDS011;5278;42.656;23.374;2022-12-11T00:35:57;12.00;;;9.10;;
10461;SDS011;5278;42.656;23.374;2022-12-11T00:38:24;11.53;;;8.33;;
10461;SDS011;5278;42.656;23.374;2022-12-11T00:40:56;12.27;;;8.40;;
10461;SDS011;5278;42.656;23.374;2022-12-11T00:43:24;14.53;;;8.60;;
10461;SDS011;5278;42.656;23.374;2022-12-11T00:45:52;12.40;;;8.77;;
10461;SDS011;5278;42.656;23.374;2022-12-11T00:48:21;12.90;;;10.57;;
10461;SDS011;5278;42.656;23.374;2022-12-11T00:50:48;15.17;;;10.87;;
10461;SDS011;5278;42.656;23.374;2022-12-11T00:53:15;13.57;;;10.07;;
10461;SDS011;5278;42.656;23.374;2022-12-11T00:55:42;16.83;;;10.40;;
10461;SDS011;5278;42.656;23.374;2022-12-11T00:58:11;15.43;;;11.17;;
10461;SDS011;5278;42.656;23.374;2022-12-11T01:00:39;18.00;;;11.10;;
10461;SDS011;5278;42.656;23.374;2022-12-11T01:03:08;14.77;;;10.37;;
10461;SDS011;5278;42.656;23.374;2022-12-11T01:05:35;16.93;;;11.03;;
10461;SDS011;5278;42.656;23.374;2022-12-11T01:08:03;12.87;;;9.37;;
10461;SDS011;5278;42.656;23.374;2022-12-11T01:10:33;11.87;;;9.13;;
10461;SDS011;5278;42.656;23.374;2022-12-11T01:13:00;13.40;;;9.20;;
10461;SDS011;5278;42.656;23.374;2022-12-11T01:15:32;13.83;;;10.10;;
10461;SDS011;5278;42.656;23.374;2022-12-11T01:18:00;15.37;;;10.97;;
10461;SDS011;5278;42.656;23.374;2022-12-11T01:20:27;20.37;;;11.67;;
10461;SDS011;5278;42.656;23.374;2022-12-11T01:22:55;17.87;;;10.97;;
10461;SDS011;5278;42.656;23.374;2022-12-11T01:25:23;17.20;;;12.27;;
10461;SDS011;5278;42.656;23.374;2022-12-11T01:27:51;18.90;;;11.67;;
10461;SDS011;5278;42.656;23.374;2022-12-11T01:30:22;16.20;;;10.93;;
10461;SDS011;5278;42.656;23.374;2022-12-11T01:32:53;15.73;;;12.00;;
10461;SDS011;5278;42.656;23.374;2022-12-11T01:35:20;15.53;;;10.67;;
10461;SDS011;5278;42.656;23.374;2022-12-11T01:37:47;19.43;;;11.13;;
10461;SDS011;5278;42.656;23.374;2022-12-11T01:40:15;16.30;;;11.03;;
10461;SDS011;5278;42.656;23.374;2022-12-11T01:42:44;18.27;;;11.77;;
10461;SDS011;5278;42.656;23.374;2022-12-11T01:45:21;14.90;;;10.73;;
10461;SDS011;5278;42.656;23.374;2022-12-11T01:47:54;16.47;;;11.17;;
10461;SDS011;5278;42.656;23.374;2022-12-11T01:50:25;13.73;;;9.20;;
10461;SDS011;5278;42.656;23.374;2022-12-11T01:52:54;13.33;;;9.37;;
10461;SDS011;5278;42.656;23.374;2022-12-11T01:55:21;9.30;;;6.73;;
10461;SDS011;5278;42.656;23.374;2022-12-11T01:57:49;9.83;;;6.57;;
10461;SDS011;5278;42.656;23.374;2022-12-11T02:00:18;12.87;;;7.27;;
10461;SDS011;5278;42.656;23.374;2022-12-11T02:02:46;9.20;;;6.77;;
10461;SDS011;5278;42.656;23.374;2022-12-11T02:05:14;9.87;;;6.80;;
10461;SDS011;5278;42.656;23.374;2022-12-11T02:07:42;10.90;;;7.27;;
10461;SDS011;5278;42.656;23.374;2022-12-11T02:10:12;13.53;;;7.77;;
10461;SDS011;5278;42.656;23.374;2022-12-11T02:12:41;9.80;;;7.13;;
10461;SDS011;5278;42.656;23.374;2022-12-11T02:15:19;11.03;;;7.30;;
10461;SDS011;5278;42.656;23.374;2022-12-11T02:17:53;9.40;;;6.30;;
10461;SDS011;5278;42.656;23.374;2022-12-11T02:20:35;11.43;;;6.27;;
10461;SDS011;5278;42.656;23.374;2022-12-11T02:26:11;9.43;;;6.30;;
10461;SDS011;5278;42.656;23.374;2022-12-11T02:28:48;9.47;;;5.00;;
10461;SDS011;5278;42.656;23.374;2022-12-11T02:31:20;4.43;;;3.53;;
10461;SDS011;5278;42.656;23.374;2022-12-11T02:33:54;5.53;;;3.93;;
10461;SDS011;5278;42.656;23.374;2022-12-11T02:36:27;4.30;;;3.53;;
10461;SDS011;5278;42.656;23.374;2022-12-11T02:38:57;7.23;;;3.90;;
10461;SDS011;5278;42.656;23.374;2022-12-11T02:41:26;5.17;;;3.43;;
10461;SDS011;5278;42.656;23.374;2022-12-11T02:43:57;6.10;;;4.40;;
10461;SDS011;5278;42.656;23.374;2022-12-11T02:46:28;6.70;;;3.80;;
10461;SDS011;5278;42.656;23.374;2022-12-11T02:48:56;4.90;;;3.03;;
10461;SDS011;5278;42.656;23.374;2022-12-11T02:51:25;5.47;;;4.03;;
10461;SDS011;5278;42.656;23.374;2022-12-11T02:53:55;4.30;;;3.30;;
10461;SDS011;5278;42.656;23.374;2022-12-11T02:56:25;4.33;;;2.80;;
10461;SDS011;5278;42.656;23.374;2022-12-11T02:58:58;5.27;;;3.17;;
10461;SDS011;5278;42.656;23.374;2022-12-11T03:01:28;3.67;;;2.80;;
10461;SDS011;5278;42.656;23.374;2022-12-11T03:03:55;6.73;;;3.57;;
10461;SDS011;5278;42.656;23.374;2022-12-11T03:06:25;6.63;;;3.60;;
10461;SDS011;5278;42.656;23.374;2022-12-11T03:08:57;4.17;;;3.53;;
10461;SDS011;5278;42.656;23.374;2022-12-11T03:11:24;4.27;;;3.03;;
10461;SDS011;5278;42.656;23.374;2022-12-11T03:13:51;4.07;;;2.60;;
10461;SDS011;5278;42.656;23.374;2022-12-11T03:16:23;3.00;;;2.70;;
10461;SDS011;5278;42.656;23.374;2022-12-11T03:18:57;3.00;;;2.37;;
10461;SDS011;5278;42.656;23.374;2022-12-11T03:21:33;2.27;;;1.90;;
10461;SDS011;5278;42.656;23.374;2022-12-11T03:24:07;2.10;;;1.90;;
10461;SDS011;5278;42.656;23.374;2022-12-11T03:26:41;2.00;;;1.80;;
10461;SDS011;5278;42.656;23.374;2022-12-11T03:29:13;5.00;;;2.23;;
10461;SDS011;5278;42.656;23.374;2022-12-11T03:31:48;3.93;;;2.23;;
10461;SDS011;5278;42.656;23.374;2022-12-11T03:34:22;3.60;;;2.20;;
10461;SDS011;5278;42.656;23.374;2022-12-11T03:36:53;1.90;;;1.80;;
10461;SDS011;5278;42.656;23.374;2022-12-11T03:39:23;2.00;;;1.80;;
10461;SDS011;5278;42.656;23.374;2022-12-11T03:41:56;2.03;;;1.70;;
10461;SDS011;5278;42.656;23.374;2022-12-11T03:44:26;3.80;;;1.70;;
10461;SDS011;5278;42.656;23.374;2022-12-11T03:46:56;1.50;;;1.40;;
10461;SDS011;5278;42.656;23.374;2022-12-11T03:49:28;1.10;;;1.00;;
10461;SDS011;5278;42.656;23.374;2022-12-11T03:51:59;1.43;;;1.00;;
10461;SDS011;5278;42.656;23.374;2022-12-11T03:54:28;1.20;;;1.10;;
10461;SDS011;5278;42.656;23.374;2022-12-11T03:56:57;1.83;;;1.30;;
10461;SDS011;5278;42.656;23.374;2022-12-11T03:59:27;1.23;;;1.07;;
10461;SDS011;5278;42.656;23.374;2022-12-11T04:01:54;1.50;;;1.40;;
10461;SDS011;5278;42.656;23.374;2022-12-11T04:04:23;2.60;;;1.60;;
10461;SDS011;5278;42.656;23.374;2022-12-11T04:06:50;2.00;;;1.80;;
10461;SDS011;5278;42.656;23.374;2022-12-11T04:09:17;3.37;;;1.53;;
10461;SDS011;5278;42.656;23.374;2022-12-11T04:11:44;2.37;;;1.60;;
10461;SDS011;5278;42.656;23.374;2022-12-11T04:14:11;2.50;;;1.63;;
10461;SDS011;5278;42.656;23.374;2022-12-11T04:16:58;2.77;;;2.17;;
10461;SDS011;5278;42.656;23.374;2022-12-11T04:19:26;2.67;;;2.20;;
10461;SDS011;5278;42.656;23.374;2022-12-11T04:22:11;4.20;;;2.00;;
10461;SDS011;5278;42.656;23.374;2022-12-11T04:24:56;2.73;;;1.50;;
10461;SDS011;5278;42.656;23.374;2022-12-11T04:27:23;3.17;;;1.67;;
10461;SDS011;5278;42.656;23.374;2022-12-11T04:30:09;1.57;;;1.47;;
10461;SDS011;5278;42.656;23.374;2022-12-11T04:32:40;2.67;;;1.47;;
10461;SDS011;5278;42.656;23.374;2022-12-11T04:35:07;1.30;;;1.20;;
10461;SDS011;5278;42.656;23.374;2022-12-11T04:37:36;1.40;;;1.30;;
10461;SDS011;5278;42.656;23.374;2022-12-11T04:40:04;3.53;;;1.43;;
10461;SDS011;5278;42.656;23.374;2022-12-11T04:42:32;2.23;;;1.57;;
10461;SDS011;5278;42.656;23.374;2022-12-11T04:44:59;2.43;;;1.43;;
10461;SDS011;5278;42.656;23.374;2022-12-11T04:47:27;2.13;;;1.33;;
10461;SDS011;5278;42.656;23.374;2022-12-11T04:49:55;1.40;;;1.20;;
10461;SDS011;5278;42.656;23.374;2022-12-11T04:52:22;2.00;;;1.30;;
10461;SDS011;5278;42.656;23.374;2022-12-11T04:54:49;3.03;;;1.10;;
10461;SDS011;5278;42.656;23.374;2022-12-11T04:57:17;1.97;;;1.13;;
10461;SDS011;5278;42.656;23.374;2022-12-11T04:59:45;2.17;;;1.20;;
10461;SDS011;5278;42.656;23.374;2022-12-11T05:02:14;1.57;;;1.10;;
10461;SDS011;5278;42.656;23.374;2022-12-11T05:04:42;1.20;;;1.10;;
10461;SDS011;5278;42.656;23.374;2022-12-11T05:07:10;1.20;;;1.10;;
10461;SDS011;5278;42.656;23.374;2022-12-11T05:09:37;1.23;;;0.80;;
10461;SDS011;5278;42.656;23.374;2022-12-11T05:12:05;1.13;;;0.90;;
10461;SDS011;5278;42.656;23.374;2022-12-11T05:14:31;0.83;;;0.83;;
10461;SDS011;5278;42.656;23.374;2022-12-11T05:16:58;1.30;;;1.10;;
10461;SDS011;5278;42.656;23.374;2022-12-11T05:19:25;2.37;;;1.33;;
10461;SDS011;5278;42.656;23.374;2022-12-11T05:21:52;1.10;;;1.00;;
10461;SDS011;5278;42.656;23.374;2022-12-11T05:24:21;1.33;;;1.17;;
10461;SDS011;5278;42.656;23.374;2022-12-11T05:26:49;2.87;;;1.40;;
10461;SDS011;5278;42.656;23.374;2022-12-11T05:29:16;2.00;;;1.20;;
10461;SDS011;5278;42.656;23.374;2022-12-11T05:31:43;1.27;;;1.17;;
10461;SDS011;5278;42.656;23.374;2022-12-11T05:34:09;1.20;;;0.90;;
10461;SDS011;5278;42.656;23.374;2022-12-11T05:36:36;2.67;;;1.00;;
10461;SDS011;5278;42.656;23.374;2022-12-11T05:39:03;3.13;;;1.00;;
10461;SDS011;5278;42.656;23.374;2022-12-11T05:41:32;2.30;;;1.10;;
10461;SDS011;5278;42.656;23.374;2022-12-11T05:43:59;1.10;;;1.00;;
10461;SDS011;5278;42.656;23.374;2022-12-11T05:46:27;1.17;;;1.10;;
10461;SDS011;5278;42.656;23.374;2022-12-11T05:48:56;1.30;;;1.00;;
10461;SDS011;5278;42.656;23.374;2022-12-11T05:51:24;1.10;;;1.00;;
10461;SDS011;5278;42.656;23.374;2022-12-11T05:53:52;2.37;;;1.30;;
10461;SDS011;5278;42.656;23.374;2022-12-11T05:56:21;0.87;;;0.87;;
10461;SDS011;5278;42.656;23.374;2022-12-11T05:58:51;1.63;;;1.27;;
10461;SDS011;5278;42.656;23.374;2022-12-11T06:01:20;2.40;;;1.40;;
10461;SDS011;5278;42.656;23.374;2022-12-11T06:03:49;2.20;;;0.87;;
10461;SDS011;5278;42.656;23.374;2022-12-11T06:06:16;6.20;;;2.67;;
10461;SDS011;5278;42.656;23.374;2022-12-11T06:08:43;2.73;;;1.40;;
10461;SDS011;5278;42.656;23.374;2022-12-11T06:11:12;1.70;;;1.60;;
10461;SDS011;5278;42.656;23.374;2022-12-11T06:13:39;1.80;;;1.30;;
10461;SDS011;5278;42.656;23.374;2022-12-11T06:16:08;1.60;;;1.50;;
10461;SDS011;5278;42.656;23.374;2022-12-11T06:18:35;11.10;;;5.83;;
10461;SDS011;5278;42.656;23.374;2022-12-11T06:21:09;5.03;;;2.67;;
10461;SDS011;5278;42.656;23.374;2022-12-11T06:23:37;2.50;;;1.60;;
10461;SDS011;5278;42.656;23.374;2022-12-11T06:26:04;3.53;;;1.20;;
10461;SDS011;5278;42.656;23.374;2022-12-11T06:30:59;1.30;;;1.20;;
10461;SDS011;5278;42.656;23.374;2022-12-11T06:33:27;1.30;;;1.20;;
10461;SDS011;5278;42.656;23.374;2022-12-11T06:35:54;1.00;;;1.00;;
10461;SDS011;5278;42.656;23.374;2022-12-11T06:38:22;2.23;;;1.20;;
10461;SDS011;5278;42.656;23.374;2022-12-11T06:40:53;1.33;;;1.20;;
10461;SDS011;5278;42.656;23.374;2022-12-11T06:43:20;0.73;;;0.73;;
10461;SDS011;5278;42.656;23.374;2022-12-11T06:45:48;0.70;;;0.50;;
10461;SDS011;5278;42.656;23.374;2022-12-11T06:48:15;0.70;;;0.70;;
10461;SDS011;5278;42.656;23.374;2022-12-11T06:50:43;0.93;;;0.93;;
10461;SDS011;5278;42.656;23.374;2022-12-11T06:53:10;4.47;;;1.40;;
10461;SDS011;5278;42.656;23.374;2022-12-11T06:55:39;0.73;;;0.67;;
10461;SDS011;5278;42.656;23.374;2022-12-11T06:58:06;1.43;;;0.90;;
10461;SDS011;5278;42.656;23.374;2022-12-11T07:00:33;1.70;;;1.10;;
10461;SDS011;5278;42.656;23.374;2022-12-11T07:03:02;5.43;;;4.10;;
10461;SDS011;5278;42.656;23.374;2022-12-11T07:05:30;1.27;;;1.13;;
10461;SDS011;5278;42.656;23.374;2022-12-11T07:07:58;1.67;;;1.10;;
10461;SDS011;5278;42.656;23.374;2022-12-11T07:10:25;4.10;;;2.50;;
10461;SDS011;5278;42.656;23.374;2022-12-11T07:12:53;1.97;;;1.10;;
10461;SDS011;5278;42.656;23.374;2022-12-11T07:15:20;1.90;;;1.10;;
10461;SDS011;5278;42.656;23.374;2022-12-11T07:17:47;2.53;;;1.03;;
10461;SDS011;5278;42.656;23.374;2022-12-11T07:20:13;2.23;;;0.93;;
10461;SDS011;5278;42.656;23.374;2022-12-11T07:22:41;4.10;;;1.00;;
10461;SDS011;5278;42.656;23.374;2022-12-11T07:25:09;1.30;;;1.00;;
10461;SDS011;5278;42.656;23.374;2022-12-11T07:27:37;0.80;;;0.80;;
10461;SDS011;5278;42.656;23.374;2022-12-11T07:30:04;2.00;;;1.53;;
10461;SDS011;5278;42.656;23.374;2022-12-11T07:32:32;3.43;;;2.17;;
10461;SDS011;5278;42.656;23.374;2022-12-11T07:34:59;3.63;;;2.20;;
10461;SDS011;5278;42.656;23.374;2022-12-11T07:37:27;2.13;;;1.10;;
10461;SDS011;5278;42.656;23.374;2022-12-11T07:39:54;1.93;;;1.27;;
10461;SDS011;5278;42.656;23.374;2022-12-11T07:42:23;1.27;;;1.13;;
10461;SDS011;5278;42.656;23.374;2022-12-11T07:44:50;2.57;;;1.20;;
10461;SDS011;5278;42.656;23.374;2022-12-11T07:47:17;1.87;;;1.50;;
10461;SDS011;5278;42.656;23.374;2022-12-11T07:49:43;1.43;;;1.33;;
10461;SDS011;5278;42.656;23.374;2022-12-11T07:52:10;6.67;;;1.57;;
10461;SDS011;5278;42.656;23.374;2022-12-11T07:54:37;1.93;;;1.20;;
10461;SDS011;5278;42.656;23.374;2022-12-11T07:57:04;2.13;;;1.50;;
10461;SDS011;5278;42.656;23.374;2022-12-11T07:59:33;2.57;;;1.40;;
10461;SDS011;5278;42.656;23.374;2022-12-11T08:02:00;2.97;;;1.50;;
10461;SDS011;5278;42.656;23.374;2022-12-11T08:04:26;1.90;;;1.53;;
10461;SDS011;5278;42.656;23.374;2022-12-11T08:06:56;3.40;;;1.60;;
10461;SDS011;5278;42.656;23.374;2022-12-11T08:09:23;1.60;;;1.37;;
10461;SDS011;5278;42.656;23.374;2022-12-11T08:11:50;2.00;;;1.23;;
10461;SDS011;5278;42.656;23.374;2022-12-11T08:14:17;2.17;;;1.20;;
10461;SDS011;5278;42.656;23.374;2022-12-11T08:16:48;2.67;;;1.40;;
10461;SDS011;5278;42.656;23.374;2022-12-11T08:19:15;1.13;;;1.00;;
10461;SDS011;5278;42.656;23.374;2022-12-11T08:21:42;2.67;;;1.37;;
10461;SDS011;5278;42.656;23.374;2022-12-11T08:24:09;2.07;;;1.33;;
10461;SDS011;5278;42.656;23.374;2022-12-11T08:26:36;3.00;;;1.40;;
10461;SDS011;5278;42.656;23.374;2022-12-11T08:29:05;2.10;;;1.40;;
10461;SDS011;5278;42.656;23.374;2022-12-11T08:31:32;2.10;;;1.47;;
10461;SDS011;5278;42.656;23.374;2022-12-11T08:34:00;1.43;;;1.30;;
10461;SDS011;5278;42.656;23.374;2022-12-11T08:36:27;1.87;;;1.40;;
10461;SDS011;5278;42.656;23.374;2022-12-11T08:38:54;2.60;;;1.30;;
10461;SDS011;5278;42.656;23.374;2022-12-11T08:41:22;1.80;;;1.30;;
10461;SDS011;5278;42.656;23.374;2022-12-11T08:43:51;2.20;;;1.73;;
10461;SDS011;5278;42.656;23.374;2022-12-11T08:46:19;2.53;;;1.17;;
10461;SDS011;5278;42.656;23.374;2022-12-11T08:48:47;4.90;;;2.13;;
10461;SDS011;5278;42.656;23.374;2022-12-11T08:51:18;1.60;;;1.40;;
10461;SDS011;5278;42.656;23.374;2022-12-11T08:53:47;3.80;;;1.30;;
10461;SDS011;5278;42.656;23.374;2022-12-11T08:56:16;1.20;;;1.10;;
10461;SDS011;5278;42.656;23.374;2022-12-11T08:58:45;1.43;;;1.33;;
10461;SDS011;5278;42.656;23.374;2022-12-11T09:01:13;2.80;;;1.80;;
10461;SDS011;5278;42.656;23.374;2022-12-11T09:03:42;2.30;;;2.00;;
10461;SDS011;5278;42.656;23.374;2022-12-11T09:06:10;2.63;;;2.00;;
10461;SDS011;5278;42.656;23.374;2022-12-11T09:08:41;2.30;;;1.80;;
10461;SDS011;5278;42.656;23.374;2022-12-11T09:11:09;1.90;;;1.80;;
10461;SDS011;5278;42.656;23.374;2022-12-11T09:13:38;2.33;;;1.70;;
10461;SDS011;5278;42.656;23.374;2022-12-11T09:16:05;3.13;;;1.80;;
10461;SDS011;5278;42.656;23.374;2022-12-11T09:18:34;2.00;;;1.90;;
10461;SDS011;5278;42.656;23.374;2022-12-11T09:21:02;2.20;;;1.67;;
10461;SDS011;5278;42.656;23.374;2022-12-11T09:23:30;2.67;;;1.70;;
10461;SDS011;5278;42.656;23.374;2022-12-11T09:26:03;4.47;;;1.90;;
10461;SDS011;5278;42.656;23.374;2022-12-11T09:28:31;2.33;;;1.67;;
10461;SDS011;5278;42.656;23.374;2022-12-11T09:30:59;1.70;;;1.60;;
10461;SDS011;5278;42.656;23.374;2022-12-11T09:33:26;2.27;;;1.70;;
10461;SDS011;5278;42.656;23.374;2022-12-11T09:35:56;2.17;;;1.93;;
10461;SDS011;5278;42.656;23.374;2022-12-11T09:38:24;2.53;;;1.43;;
10461;SDS011;5278;42.656;23.374;2022-12-11T09:40:51;1.83;;;1.43;;
10461;SDS011;5278;42.656;23.374;2022-12-11T09:43:21;1.67;;;1.57;;
10461;SDS011;5278;42.656;23.374;2022-12-11T09:45:58;2.40;;;1.77;;
10461;SDS011;5278;42.656;23.374;2022-12-11T09:48:28;1.67;;;1.57;;
10461;SDS011;5278;42.656;23.374;2022-12-11T09:51:01;3.03;;;1.70;;
10461;SDS011;5278;42.656;23.374;2022-12-11T09:53:36;1.47;;;1.20;;
10461;SDS011;5278;42.656;23.374;2022-12-11T09:56:03;2.63;;;1.50;;
10461;SDS011;5278;42.656;23.374;2022-12-11T09:58:43;1.43;;;1.33;;
10461;SDS011;5278;42.656;23.374;2022-12-11T10:01:25;1.63;;;1.53;;
10461;SDS011;5278;42.656;23.374;2022-12-11T10:04:13;3.10;;;1.50;;
10461;SDS011;5278;42.656;23.374;2022-12-11T10:07:01;2.03;;;1.47;;
10461;SDS011;5278;42.656;23.374;2022-12-11T10:09:37;1.83;;;1.40;;
10461;SDS011;5278;42.656;23.374;2022-12-11T10:12:15;1.57;;;1.20;;
10461;SDS011;5278;42.656;23.374;2022-12-11T10:14:57;1.30;;;1.20;;
10461;SDS011;5278;42.656;23.374;2022-12-11T10:17:56;1.57;;;1.43;;
10461;SDS011;5278;42.656;23.374;2022-12-11T10:20:27;2.67;;;1.90;;
10461;SDS011;5278;42.656;23.374;2022-12-11T10:22:59;2.10;;;1.73;;
10461;SDS011;5278;42.656;23.374;2022-12-11T10:25:28;1.83;;;1.37;;
10461;SDS011;5278;42.656;23.374;2022-12-11T10:27:57;3.67;;;2.40;;
10461;SDS011;5278;42.656;23.374;2022-12-11T10:30:36;2.77;;;1.83;;
10461;SDS011;5278;42.656;23.374;2022-12-11T10:33:12;5.23;;;2.53;;
10461;SDS011;5278;42.656;23.374;2022-12-11T10:35:46;2.10;;;1.90;;
10461;SDS011;5278;42.656;23.374;2022-12-11T10:38:19;3.50;;;2.53;;
10461;SDS011;5278;42.656;23.374;2022-12-11T10:40:53;2.50;;;2.30;;
10461;SDS011;5278;42.656;23.374;2022-12-11T10:43:33;3.77;;;2.80;;
10461;SDS011;5278;42.656;23.374;2022-12-11T10:46:03;3.40;;;2.50;;
10461;SDS011;5278;42.656;23.374;2022-12-11T10:48:31;2.30;;;2.10;;
10461;SDS011;5278;42.656;23.374;2022-12-11T10:51:00;3.23;;;1.83;;
10461;SDS011;5278;42.656;23.374;2022-12-11T10:53:29;3.73;;;2.57;;
10461;SDS011;5278;42.656;23.374;2022-12-11T10:55:59;2.80;;;2.60;;
10461;SDS011;5278;42.656;23.374;2022-12-11T10:58:29;2.43;;;2.00;;
10461;SDS011;5278;42.656;23.374;2022-12-11T11:01:03;3.97;;;2.50;;
10461;SDS011;5278;42.656;23.374;2022-12-11T11:03:34;2.80;;;2.33;;
10461;SDS011;5278;42.656;23.374;2022-12-11T11:06:05;2.53;;;2.33;;
10461;SDS011;5278;42.656;23.374;2022-12-11T11:08:40;2.17;;;1.97;;
10461;SDS011;5278;42.656;23.374;2022-12-11T11:11:19;2.60;;;1.97;;
10461;SDS011;5278;42.656;23.374;2022-12-11T11:13:51;2.10;;;1.67;;
10461;SDS011;5278;42.656;23.374;2022-12-11T11:16:20;2.30;;;1.70;;
10461;SDS011;5278;42.656;23.374;2022-12-11T11:18:48;2.33;;;1.60;;
10461;SDS011;5278;42.656;23.374;2022-12-11T11:21:19;3.83;;;2.13;;
10461;SDS011;5278;42.656;23.374;2022-12-11T11:23:47;3.70;;;1.83;;
10461;SDS011;5278;42.656;23.374;2022-12-11T11:26:15;3.00;;;2.73;;
10461;SDS011;5278;42.656;23.374;2022-12-11T11:28:46;2.00;;;1.80;;
10461;SDS011;5278;42.656;23.374;2022-12-11T11:31:15;1.87;;;1.60;;
10461;SDS011;5278;42.656;23.374;2022-12-11T11:33:47;1.80;;;1.70;;
10461;SDS011;5278;42.656;23.374;2022-12-11T11:36:21;1.60;;;1.50;;
10461;SDS011;5278;42.656;23.374;2022-12-11T11:38:56;2.60;;;1.97;;
10461;SDS011;5278;42.656;23.374;2022-12-11T11:41:36;2.03;;;1.83;;
10461;SDS011;5278;42.656;23.374;2022-12-11T11:44:13;3.43;;;1.90;;
10461;SDS011;5278;42.656;23.374;2022-12-11T11:46:48;2.23;;;2.03;;
10461;SDS011;5278;42.656;23.374;2022-12-11T11:49:24;4.70;;;2.13;;
10461;SDS011;5278;42.656;23.374;2022-12-11T11:52:07;1.97;;;1.87;;
10461;SDS011;5278;42.656;23.374;2022-12-11T11:54:41;3.67;;;2.30;;
10461;SDS011;5278;42.656;23.374;2022-12-11T11:57:21;2.87;;;2.40;;
10461;SDS011;5278;42.656;23.374;2022-12-11T11:59:53;3.00;;;2.47;;
10461;SDS011;5278;42.656;23.374;2022-12-11T12:02:35;2.67;;;2.03;;
10461;SDS011;5278;42.656;23.374;2022-12-11T12:05:05;3.87;;;2.60;;
10461;SDS011;5278;42.656;23.374;2022-12-11T12:07:34;3.73;;;2.13;;
10461;SDS011;5278;42.656;23.374;2022-12-11T12:10:09;2.63;;;2.20;;
10461;SDS011;5278;42.656;23.374;2022-12-11T12:12:48;4.77;;;3.13;;
10461;SDS011;5278;42.656;23.374;2022-12-11T12:15:26;4.70;;;3.07;;
10461;SDS011;5278;42.656;23.374;2022-12-11T12:18:01;3.83;;;2.70;;
10461;SDS011;5278;42.656;23.374;2022-12-11T12:20:41;4.30;;;2.47;;
10461;SDS011;5278;42.656;23.374;2022-12-11T12:23:23;2.73;;;2.40;;
10461;SDS011;5278;42.656;23.374;2022-12-11T12:26:10;3.13;;;2.13;;
10461;SDS011;5278;42.656;23.374;2022-12-11T12:28:43;3.37;;;2.10;;
10461;SDS011;5278;42.656;23.374;2022-12-11T12:31:26;3.97;;;3.57;;
10461;SDS011;5278;42.656;23.374;2022-12-11T12:34:14;7.87;;;3.93;;
10461;SDS011;5278;42.656;23.374;2022-12-11T12:36:52;6.53;;;4.07;;
10461;SDS011;5278;42.656;23.374;2022-12-11T12:39:26;4.37;;;2.57;;
10461;SDS011;5278;42.656;23.374;2022-12-11T12:42:04;3.60;;;3.07;;
10461;SDS011;5278;42.656;23.374;2022-12-11T12:44:39;2.37;;;2.17;;
10461;SDS011;5278;42.656;23.374;2022-12-11T12:47:11;3.07;;;2.40;;
10461;SDS011;5278;42.656;23.374;2022-12-11T12:49:41;3.20;;;2.33;;
10461;SDS011;5278;42.656;23.374;2022-12-11T12:52:12;3.47;;;2.37;;
10461;SDS011;5278;42.656;23.374;2022-12-11T12:54:41;2.80;;;1.90;;
10461;SDS011;5278;42.656;23.374;2022-12-11T12:57:33;3.37;;;1.87;;
10461;SDS011;5278;42.656;23.374;2022-12-11T13:00:02;2.93;;;1.80;;
10461;SDS011;5278;42.656;23.374;2022-12-11T13:02:30;2.00;;;1.80;;
10461;SDS011;5278;42.656;23.374;2022-12-11T13:04:59;2.47;;;1.97;;
10461;SDS011;5278;42.656;23.374;2022-12-11T13:07:32;1.80;;;1.70;;
10461;SDS011;5278;42.656;23.374;2022-12-11T13:10:02;4.57;;;2.17;;
10461;SDS011;5278;42.656;23.374;2022-12-11T13:12:41;2.97;;;1.97;;
10461;SDS011;5278;42.656;23.374;2022-12-11T13:15:23;4.93;;;1.80;;
10461;SDS011;5278;42.656;23.374;2022-12-11T13:17:52;3.60;;;1.80;;
10461;SDS011;5278;42.656;23.374;2022-12-11T13:20:20;1.90;;;1.80;;
10461;SDS011;5278;42.656;23.374;2022-12-11T13:22:52;2.03;;;1.63;;
10461;SDS011;5278;42.656;23.374;2022-12-11T13:25:26;2.73;;;1.50;;
10461;SDS011;5278;42.656;23.374;2022-12-11T13:28:03;3.23;;;1.70;;
10461;SDS011;5278;42.656;23.374;2022-12-11T13:30:31;1.50;;;1.40;;
10461;SDS011;5278;42.656;23.374;2022-12-11T13:33:00;2.60;;;1.50;;
10461;SDS011;5278;42.656;23.374;2022-12-11T13:35:29;1.40;;;1.30;;
10461;SDS011;5278;42.656;23.374;2022-12-11T13:38:02;1.67;;;1.20;;
10461;SDS011;5278;42.656;23.374;2022-12-11T13:40:35;1.33;;;1.23;;
10461;SDS011;5278;42.656;23.374;2022-12-11T13:43:05;1.40;;;1.23;;
10461;SDS011;5278;42.656;23.374;2022-12-11T13:45:38;1.50;;;1.40;;
10461;SDS011;5278;42.656;23.374;2022-12-11T13:48:14;1.23;;;1.17;;
10461;SDS011;5278;42.656;23.374;2022-12-11T13:50:46;1.40;;;1.30;;
10461;SDS011;5278;42.656;23.374;2022-12-11T13:53:17;2.60;;;1.70;;
10461;SDS011;5278;42.656;23.374;2022-12-11T13:55:45;1.70;;;1.60;;
10461;SDS011;5278;42.656;23.374;2022-12-11T13:58:21;1.57;;;1.47;;
10461;SDS011;5278;42.656;23.374;2022-12-11T14:00:52;2.10;;;1.70;;
10461;SDS011;5278;42.656;23.374;2022-12-11T14:03:26;1.77;;;1.60;;
10461;SDS011;5278;42.656;23.374;2022-12-11T14:05:55;2.73;;;1.20;;
10461;SDS011;5278;42.656;23.374;2022-12-11T14:08:26;1.87;;;1.60;;
10461;SDS011;5278;42.656;23.374;2022-12-11T14:10:58;2.03;;;1.50;;
10461;SDS011;5278;42.656;23.374;2022-12-11T14:13:25;2.03;;;1.83;;
10461;SDS011;5278;42.656;23.374;2022-12-11T14:15:57;1.63;;;1.53;;
10461;SDS011;5278;42.656;23.374;2022-12-11T14:18:25;1.43;;;1.33;;
10461;SDS011;5278;42.656;23.374;2022-12-11T14:20:55;2.20;;;1.53;;
10461;SDS011;5278;42.656;23.374;2022-12-11T14:23:25;1.43;;;1.20;;
10461;SDS011;5278;42.656;23.374;2022-12-11T14:25:53;1.50;;;1.33;;
10461;SDS011;5278;42.656;23.374;2022-12-11T14:28:22;1.63;;;1.30;;
10461;SDS011;5278;42.656;23.374;2022-12-11T14:30:52;1.20;;;1.20;;
10461;SDS011;5278;42.656;23.374;2022-12-11T14:33:23;2.20;;;1.37;;
10461;SDS011;5278;42.656;23.374;2022-12-11T14:35:53;1.80;;;1.40;;
10461;SDS011;5278;42.656;23.374;2022-12-11T14:38:22;1.83;;;1.30;;
10461;SDS011;5278;42.656;23.374;2022-12-11T14:40:55;1.83;;;1.50;;
10461;SDS011;5278;42.656;23.374;2022-12-11T14:43:29;1.60;;;1.50;;
10461;SDS011;5278;42.656;23.374;2022-12-11T14:46:03;1.40;;;1.30;;
10461;SDS011;5278;42.656;23.374;2022-12-11T14:48:37;1.50;;;1.40;;
10461;SDS011;5278;42.656;23.374;2022-12-11T14:51:10;1.93;;;1.30;;
10461;SDS011;5278;42.656;23.374;2022-12-11T14:53:44;1.17;;;1.07;;
10461;SDS011;5278;42.656;23.374;2022-12-11T14:56:15;1.20;;;1.10;;
10461;SDS011;5278;42.656;23.374;2022-12-11T14:58:45;1.50;;;1.40;;
10461;SDS011;5278;42.656;23.374;2022-12-11T15:01:21;1.97;;;1.77;;
10461;SDS011;5278;42.656;23.374;2022-12-11T15:04:00;1.30;;;1.23;;
10461;SDS011;5278;42.656;23.374;2022-12-11T15:06:29;2.17;;;1.33;;
10461;SDS011;5278;42.656;23.374;2022-12-11T15:09:07;3.77;;;1.70;;
10461;SDS011;5278;42.656;23.374;2022-12-11T15:11:35;2.07;;;1.43;;